sensor_id;sensor_type;location;lat;lon;timestamp;P1;durP1;ratioP1;P2;durP2;ratioP2
21543;SDS011;10933;50.754;11.508;2024-01-30T00:01:44;11.47;;;10.57;;
21543;SDS011;10933;50.754;11.508;2024-01-30T00:04:10;9.30;;;8.60;;
21543;SDS011;10933;50.754;11.508;2024-01-30T00:06:36;11.40;;;9.00;;
21543;SDS011;10933;50.754;11.508;2024-01-30T00:09:02;10.03;;;9.27;;
21543;SDS011;10933;50.754;11.508;2024-01-30T00:11:30;10.77;;;9.60;;
21543;SDS011;10933;50.754;11.508;2024-01-30T00:13:56;9.80;;;8.90;;
21543;SDS011;10933;50.754;11.508;2024-01-30T00:16:23;11.07;;;10.20;;
21543;SDS011;10933;50.754;11.508;2024-01-30T00:18:50;10.43;;;9.53;;
21543;SDS011;10933;50.754;11.508;2024-01-30T00:21:17;13.40;;;12.13;;
21543;SDS011;10933;50.754;11.508;2024-01-30T00:23:44;10.53;;;9.50;;
21543;SDS011;10933;50.754;11.508;2024-01-30T00:26:10;10.23;;;9.27;;
21543;SDS011;10933;50.754;11.508;2024-01-30T00:28:37;11.13;;;10.17;;
21543;SDS011;10933;50.754;11.508;2024-01-30T00:31:03;9.23;;;8.53;;
21543;SDS011;10933;50.754;11.508;2024-01-30T00:33:29;8.47;;;7.87;;
21543;SDS011;10933;50.754;11.508;2024-01-30T00:35:56;9.37;;;8.57;;
21543;SDS011;10933;50.754;11.508;2024-01-30T00:38:22;9.30;;;8.50;;
21543;SDS011;10933;50.754;11.508;2024-01-30T00:40:48;9.73;;;8.17;;
21543;SDS011;10933;50.754;11.508;2024-01-30T00:43:15;9.80;;;9.10;;
21543;SDS011;10933;50.754;11.508;2024-01-30T00:45:43;9.27;;;8.47;;
21543;SDS011;10933;50.754;11.508;2024-01-30T00:48:09;10.03;;;9.13;;
21543;SDS011;10933;50.754;11.508;2024-01-30T00:50:35;11.60;;;9.77;;
21543;SDS011;10933;50.754;11.508;2024-01-30T00:53:01;10.60;;;9.70;;
21543;SDS011;10933;50.754;11.508;2024-01-30T00:55:27;11.10;;;10.30;;
21543;SDS011;10933;50.754;11.508;2024-01-30T00:57:53;11.40;;;10.37;;
21543;SDS011;10933;50.754;11.508;2024-01-30T01:00:19;10.57;;;9.60;;
21543;SDS011;10933;50.754;11.508;2024-01-30T01:02:46;8.80;;;8.10;;
21543;SDS011;10933;50.754;11.508;2024-01-30T01:05:12;18.63;;;15.53;;
21543;SDS011;10933;50.754;11.508;2024-01-30T01:07:38;9.10;;;8.40;;
21543;SDS011;10933;50.754;11.508;2024-01-30T01:10:05;8.77;;;8.10;;
21543;SDS011;10933;50.754;11.508;2024-01-30T01:12:31;9.73;;;8.90;;
21543;SDS011;10933;50.754;11.508;2024-01-30T01:14:57;8.93;;;8.13;;
21543;SDS011;10933;50.754;11.508;2024-01-30T01:17:23;8.73;;;8.03;;
21543;SDS011;10933;50.754;11.508;2024-01-30T01:19:49;13.27;;;11.23;;
21543;SDS011;10933;50.754;11.508;2024-01-30T01:22:15;10.27;;;9.17;;
21543;SDS011;10933;50.754;11.508;2024-01-30T01:24:43;19.57;;;13.13;;
21543;SDS011;10933;50.754;11.508;2024-01-30T01:27:09;21.13;;;13.70;;
21543;SDS011;10933;50.754;11.508;2024-01-30T01:29:35;29.93;;;15.57;;
21543;SDS011;10933;50.754;11.508;2024-01-30T01:32:01;13.30;;;11.93;;
21543;SDS011;10933;50.754;11.508;2024-01-30T01:34:27;12.83;;;10.60;;
21543;SDS011;10933;50.754;11.508;2024-01-30T01:36:53;13.33;;;11.93;;
21543;SDS011;10933;50.754;11.508;2024-01-30T01:39:20;18.43;;;15.50;;
21543;SDS011;10933;50.754;11.508;2024-01-30T01:41:47;20.10;;;15.67;;
21543;SDS011;10933;50.754;11.508;2024-01-30T01:44:13;26.77;;;16.97;;
21543;SDS011;10933;50.754;11.508;2024-01-30T01:46:40;24.60;;;15.43;;
21543;SDS011;10933;50.754;11.508;2024-01-30T01:49:06;14.07;;;12.80;;
21543;SDS011;10933;50.754;11.508;2024-01-30T01:51:34;13.60;;;12.50;;
21543;SDS011;10933;50.754;11.508;2024-01-30T01:54:03;14.83;;;12.90;;
21543;SDS011;10933;50.754;11.508;2024-01-30T01:56:30;17.67;;;14.47;;
21543;SDS011;10933;50.754;11.508;2024-01-30T01:58:59;13.67;;;12.67;;
21543;SDS011;10933;50.754;11.508;2024-01-30T02:01:29;13.70;;;12.53;;
21543;SDS011;10933;50.754;11.508;2024-01-30T02:03:58;14.67;;;13.60;;
21543;SDS011;10933;50.754;11.508;2024-01-30T02:06:24;12.07;;;10.97;;
21543;SDS011;10933;50.754;11.508;2024-01-30T02:08:51;10.67;;;9.87;;
21543;SDS011;10933;50.754;11.508;2024-01-30T02:11:17;11.47;;;10.50;;
21543;SDS011;10933;50.754;11.508;2024-01-30T02:13:45;11.30;;;9.77;;
21543;SDS011;10933;50.754;11.508;2024-01-30T02:16:11;11.47;;;10.57;;
21543;SDS011;10933;50.754;11.508;2024-01-30T02:18:37;11.97;;;10.83;;
21543;SDS011;10933;50.754;11.508;2024-01-30T02:21:08;14.73;;;13.07;;
21543;SDS011;10933;50.754;11.508;2024-01-30T02:23:34;14.07;;;12.67;;
21543;SDS011;10933;50.754;11.508;2024-01-30T02:26:00;14.70;;;13.17;;
21543;SDS011;10933;50.754;11.508;2024-01-30T02:28:26;13.73;;;12.60;;
21543;SDS011;10933;50.754;11.508;2024-01-30T02:30:52;12.47;;;11.33;;
21543;SDS011;10933;50.754;11.508;2024-01-30T02:33:19;13.53;;;12.53;;
21543;SDS011;10933;50.754;11.508;2024-01-30T02:35:46;12.53;;;11.33;;
21543;SDS011;10933;50.754;11.508;2024-01-30T02:38:13;12.23;;;11.23;;
21543;SDS011;10933;50.754;11.508;2024-01-30T02:40:40;12.17;;;11.27;;
21543;SDS011;10933;50.754;11.508;2024-01-30T02:43:06;11.00;;;10.20;;
21543;SDS011;10933;50.754;11.508;2024-01-30T02:45:32;12.13;;;11.00;;
21543;SDS011;10933;50.754;11.508;2024-01-30T02:47:58;11.80;;;10.90;;
21543;SDS011;10933;50.754;11.508;2024-01-30T02:50:24;17.47;;;11.90;;
21543;SDS011;10933;50.754;11.508;2024-01-30T02:52:51;12.73;;;11.57;;
21543;SDS011;10933;50.754;11.508;2024-01-30T02:55:17;12.73;;;11.63;;
21543;SDS011;10933;50.754;11.508;2024-01-30T02:57:43;12.80;;;11.67;;
21543;SDS011;10933;50.754;11.508;2024-01-30T03:00:09;11.93;;;11.03;;
21543;SDS011;10933;50.754;11.508;2024-01-30T03:02:36;12.03;;;11.13;;
21543;SDS011;10933;50.754;11.508;2024-01-30T03:05:03;12.87;;;11.90;;
21543;SDS011;10933;50.754;11.508;2024-01-30T03:07:30;11.77;;;10.97;;
21543;SDS011;10933;50.754;11.508;2024-01-30T03:09:56;12.00;;;11.00;;
21543;SDS011;10933;50.754;11.508;2024-01-30T03:12:22;13.10;;;12.07;;
21543;SDS011;10933;50.754;11.508;2024-01-30T03:14:48;11.90;;;11.10;;
21543;SDS011;10933;50.754;11.508;2024-01-30T03:17:15;12.07;;;11.13;;
21543;SDS011;10933;50.754;11.508;2024-01-30T03:19:41;12.23;;;11.23;;
21543;SDS011;10933;50.754;11.508;2024-01-30T03:22:07;12.70;;;11.80;;
21543;SDS011;10933;50.754;11.508;2024-01-30T03:24:33;13.37;;;12.10;;
21543;SDS011;10933;50.754;11.508;2024-01-30T03:26:59;12.43;;;11.13;;
21543;SDS011;10933;50.754;11.508;2024-01-30T03:29:26;15.30;;;11.80;;
21543;SDS011;10933;50.754;11.508;2024-01-30T03:31:52;11.93;;;11.03;;
21543;SDS011;10933;50.754;11.508;2024-01-30T03:34:18;12.40;;;11.50;;
21543;SDS011;10933;50.754;11.508;2024-01-30T03:36:44;12.67;;;11.67;;
21543;SDS011;10933;50.754;11.508;2024-01-30T03:39:10;12.43;;;11.53;;
21543;SDS011;10933;50.754;11.508;2024-01-30T03:41:36;13.17;;;12.03;;
21543;SDS011;10933;50.754;11.508;2024-01-30T03:44:02;12.50;;;11.60;;
21543;SDS011;10933;50.754;11.508;2024-01-30T03:46:28;13.93;;;12.70;;
21543;SDS011;10933;50.754;11.508;2024-01-30T03:48:54;13.90;;;12.17;;
21543;SDS011;10933;50.754;11.508;2024-01-30T03:51:20;10.50;;;9.70;;
21543;SDS011;10933;50.754;11.508;2024-01-30T03:53:46;10.47;;;9.67;;
21543;SDS011;10933;50.754;11.508;2024-01-30T03:56:13;10.37;;;9.27;;
21543;SDS011;10933;50.754;11.508;2024-01-30T03:58:39;7.80;;;7.20;;
21543;SDS011;10933;50.754;11.508;2024-01-30T04:01:05;8.57;;;7.77;;
21543;SDS011;10933;50.754;11.508;2024-01-30T04:03:32;9.50;;;7.83;;
21543;SDS011;10933;50.754;11.508;2024-01-30T04:05:58;9.23;;;8.53;;
21543;SDS011;10933;50.754;11.508;2024-01-30T04:08:24;10.73;;;9.83;;
21543;SDS011;10933;50.754;11.508;2024-01-30T04:10:51;14.73;;;11.23;;
21543;SDS011;10933;50.754;11.508;2024-01-30T04:13:17;10.33;;;9.53;;
21543;SDS011;10933;50.754;11.508;2024-01-30T04:15:43;10.23;;;9.37;;
21543;SDS011;10933;50.754;11.508;2024-01-30T04:18:09;11.07;;;9.87;;
21543;SDS011;10933;50.754;11.508;2024-01-30T04:20:35;12.87;;;11.77;;
21543;SDS011;10933;50.754;11.508;2024-01-30T04:23:02;12.63;;;11.53;;
21543;SDS011;10933;50.754;11.508;2024-01-30T04:25:28;11.27;;;10.27;;
21543;SDS011;10933;50.754;11.508;2024-01-30T04:27:54;9.93;;;9.13;;
21543;SDS011;10933;50.754;11.508;2024-01-30T04:30:20;10.27;;;9.37;;
21543;SDS011;10933;50.754;11.508;2024-01-30T04:32:46;11.40;;;10.23;;
21543;SDS011;10933;50.754;11.508;2024-01-30T04:35:12;10.70;;;9.87;;
21543;SDS011;10933;50.754;11.508;2024-01-30T04:37:38;10.47;;;9.60;;
21543;SDS011;10933;50.754;11.508;2024-01-30T04:40:04;10.27;;;9.57;;
21543;SDS011;10933;50.754;11.508;2024-01-30T04:42:31;11.53;;;9.47;;
21543;SDS011;10933;50.754;11.508;2024-01-30T04:44:57;10.20;;;9.50;;
21543;SDS011;10933;50.754;11.508;2024-01-30T04:47:23;10.63;;;9.87;;
21543;SDS011;10933;50.754;11.508;2024-01-30T04:49:51;9.03;;;8.13;;
21543;SDS011;10933;50.754;11.508;2024-01-30T04:52:17;8.67;;;8.07;;
21543;SDS011;10933;50.754;11.508;2024-01-30T04:54:43;9.83;;;8.90;;
21543;SDS011;10933;50.754;11.508;2024-01-30T04:57:09;11.00;;;10.27;;
21543;SDS011;10933;50.754;11.508;2024-01-30T04:59:37;10.50;;;9.60;;
21543;SDS011;10933;50.754;11.508;2024-01-30T05:02:03;9.73;;;8.87;;
21543;SDS011;10933;50.754;11.508;2024-01-30T05:04:29;9.40;;;8.70;;
21543;SDS011;10933;50.754;11.508;2024-01-30T05:06:55;10.17;;;9.27;;
21543;SDS011;10933;50.754;11.508;2024-01-30T05:09:21;13.20;;;10.63;;
21543;SDS011;10933;50.754;11.508;2024-01-30T05:11:47;9.63;;;8.83;;
21543;SDS011;10933;50.754;11.508;2024-01-30T05:14:13;10.30;;;9.50;;
21543;SDS011;10933;50.754;11.508;2024-01-30T05:16:42;10.13;;;9.43;;
21543;SDS011;10933;50.754;11.508;2024-01-30T05:19:11;11.27;;;10.20;;
21543;SDS011;10933;50.754;11.508;2024-01-30T05:21:39;10.93;;;9.73;;
21543;SDS011;10933;50.754;11.508;2024-01-30T05:24:05;11.27;;;10.13;;
21543;SDS011;10933;50.754;11.508;2024-01-30T05:26:32;9.93;;;9.23;;
21543;SDS011;10933;50.754;11.508;2024-01-30T05:28:58;13.23;;;12.17;;
21543;SDS011;10933;50.754;11.508;2024-01-30T05:31:24;19.23;;;17.43;;
21543;SDS011;10933;50.754;11.508;2024-01-30T05:33:52;20.30;;;18.40;;
21543;SDS011;10933;50.754;11.508;2024-01-30T05:36:18;15.03;;;13.93;;
21543;SDS011;10933;50.754;11.508;2024-01-30T05:38:44;13.57;;;12.57;;
21543;SDS011;10933;50.754;11.508;2024-01-30T05:41:10;12.07;;;11.27;;
21543;SDS011;10933;50.754;11.508;2024-01-30T05:43:36;17.30;;;15.80;;
21543;SDS011;10933;50.754;11.508;2024-01-30T05:46:02;16.83;;;15.63;;
21543;SDS011;10933;50.754;11.508;2024-01-30T05:48:28;28.47;;;21.73;;
21543;SDS011;10933;50.754;11.508;2024-01-30T05:50:54;34.17;;;25.13;;
21543;SDS011;10933;50.754;11.508;2024-01-30T05:53:21;29.53;;;24.00;;
21543;SDS011;10933;50.754;11.508;2024-01-30T05:55:47;24.17;;;21.80;;
21543;SDS011;10933;50.754;11.508;2024-01-30T05:58:13;20.97;;;18.93;;
21543;SDS011;10933;50.754;11.508;2024-01-30T06:00:39;17.23;;;15.83;;
21543;SDS011;10933;50.754;11.508;2024-01-30T06:03:05;18.53;;;16.97;;
21543;SDS011;10933;50.754;11.508;2024-01-30T06:05:32;20.37;;;18.33;;
21543;SDS011;10933;50.754;11.508;2024-01-30T06:07:58;16.27;;;15.00;;
21543;SDS011;10933;50.754;11.508;2024-01-30T06:10:24;16.73;;;14.97;;
21543;SDS011;10933;50.754;11.508;2024-01-30T06:12:50;21.27;;;14.80;;
21543;SDS011;10933;50.754;11.508;2024-01-30T06:15:16;16.17;;;14.77;;
21543;SDS011;10933;50.754;11.508;2024-01-30T06:17:42;18.03;;;15.17;;
21543;SDS011;10933;50.754;11.508;2024-01-30T06:20:08;19.23;;;17.40;;
21543;SDS011;10933;50.754;11.508;2024-01-30T06:22:35;15.17;;;14.03;;
21543;SDS011;10933;50.754;11.508;2024-01-30T06:25:01;13.60;;;12.27;;
21543;SDS011;10933;50.754;11.508;2024-01-30T06:27:27;12.90;;;11.80;;
21543;SDS011;10933;50.754;11.508;2024-01-30T06:29:54;14.53;;;13.00;;
21543;SDS011;10933;50.754;11.508;2024-01-30T06:32:20;13.17;;;12.20;;
21543;SDS011;10933;50.754;11.508;2024-01-30T06:34:46;12.00;;;11.10;;
21543;SDS011;10933;50.754;11.508;2024-01-30T06:37:12;14.07;;;11.60;;
21543;SDS011;10933;50.754;11.508;2024-01-30T06:39:38;13.17;;;11.97;;
21543;SDS011;10933;50.754;11.508;2024-01-30T06:42:04;12.53;;;11.43;;
21543;SDS011;10933;50.754;11.508;2024-01-30T06:44:30;11.90;;;11.00;;
21543;SDS011;10933;50.754;11.508;2024-01-30T06:46:56;11.63;;;10.77;;
21543;SDS011;10933;50.754;11.508;2024-01-30T06:49:22;14.13;;;12.93;;
21543;SDS011;10933;50.754;11.508;2024-01-30T06:51:49;18.03;;;16.20;;
21543;SDS011;10933;50.754;11.508;2024-01-30T06:54:15;34.30;;;20.83;;
21543;SDS011;10933;50.754;11.508;2024-01-30T06:56:41;27.07;;;18.07;;
21543;SDS011;10933;50.754;11.508;2024-01-30T06:59:07;19.27;;;15.43;;
21543;SDS011;10933;50.754;11.508;2024-01-30T07:01:33;14.87;;;13.40;;
21543;SDS011;10933;50.754;11.508;2024-01-30T07:03:59;14.87;;;13.67;;
21543;SDS011;10933;50.754;11.508;2024-01-30T07:06:25;14.77;;;13.33;;
21543;SDS011;10933;50.754;11.508;2024-01-30T07:08:51;15.00;;;13.07;;
21543;SDS011;10933;50.754;11.508;2024-01-30T07:11:18;15.40;;;14.20;;
21543;SDS011;10933;50.754;11.508;2024-01-30T07:13:47;15.53;;;14.00;;
21543;SDS011;10933;50.754;11.508;2024-01-30T07:16:13;20.13;;;17.47;;
21543;SDS011;10933;50.754;11.508;2024-01-30T07:18:40;21.73;;;18.47;;
21543;SDS011;10933;50.754;11.508;2024-01-30T07:21:06;21.13;;;16.87;;
21543;SDS011;10933;50.754;11.508;2024-01-30T07:23:32;16.80;;;15.07;;
21543;SDS011;10933;50.754;11.508;2024-01-30T07:25:59;30.03;;;20.00;;
21543;SDS011;10933;50.754;11.508;2024-01-30T07:28:28;20.03;;;17.70;;
21543;SDS011;10933;50.754;11.508;2024-01-30T07:30:55;25.93;;;17.43;;
21543;SDS011;10933;50.754;11.508;2024-01-30T07:33:21;16.87;;;15.20;;
21543;SDS011;10933;50.754;11.508;2024-01-30T07:35:47;19.40;;;15.53;;
21543;SDS011;10933;50.754;11.508;2024-01-30T07:38:13;17.33;;;15.63;;
21543;SDS011;10933;50.754;11.508;2024-01-30T07:40:39;19.20;;;17.27;;
21543;SDS011;10933;50.754;11.508;2024-01-30T07:43:06;56.17;;;26.87;;
21543;SDS011;10933;50.754;11.508;2024-01-30T07:45:33;34.73;;;22.63;;
21543;SDS011;10933;50.754;11.508;2024-01-30T07:47:59;42.67;;;25.03;;
21543;SDS011;10933;50.754;11.508;2024-01-30T07:50:25;64.47;;;32.97;;
21543;SDS011;10933;50.754;11.508;2024-01-30T07:52:51;53.10;;;28.17;;
21543;SDS011;10933;50.754;11.508;2024-01-30T07:55:23;52.23;;;29.37;;
21543;SDS011;10933;50.754;11.508;2024-01-30T07:57:51;45.97;;;26.73;;
21543;SDS011;10933;50.754;11.508;2024-01-30T08:00:18;31.87;;;21.17;;
21543;SDS011;10933;50.754;11.508;2024-01-30T08:02:46;26.37;;;19.53;;
21543;SDS011;10933;50.754;11.508;2024-01-30T08:05:12;28.43;;;19.30;;
21543;SDS011;10933;50.754;11.508;2024-01-30T08:07:40;32.93;;;23.43;;
21543;SDS011;10933;50.754;11.508;2024-01-30T08:10:07;29.50;;;21.67;;
21543;SDS011;10933;50.754;11.508;2024-01-30T08:12:34;24.07;;;19.77;;
21543;SDS011;10933;50.754;11.508;2024-01-30T08:15:00;30.47;;;20.07;;
21543;SDS011;10933;50.754;11.508;2024-01-30T08:17:26;28.80;;;20.57;;
21543;SDS011;10933;50.754;11.508;2024-01-30T08:19:52;24.37;;;18.67;;
21543;SDS011;10933;50.754;11.508;2024-01-30T08:22:18;17.23;;;15.47;;
21543;SDS011;10933;50.754;11.508;2024-01-30T08:24:44;17.03;;;15.27;;
21543;SDS011;10933;50.754;11.508;2024-01-30T08:27:10;15.40;;;14.03;;
21543;SDS011;10933;50.754;11.508;2024-01-30T08:29:37;14.77;;;13.37;;
21543;SDS011;10933;50.754;11.508;2024-01-30T08:32:04;15.63;;;14.23;;
21543;SDS011;10933;50.754;11.508;2024-01-30T08:34:30;13.13;;;12.23;;
21543;SDS011;10933;50.754;11.508;2024-01-30T08:36:56;15.43;;;13.87;;
21543;SDS011;10933;50.754;11.508;2024-01-30T08:39:23;14.40;;;13.07;;
21543;SDS011;10933;50.754;11.508;2024-01-30T08:41:49;13.10;;;12.20;;
21543;SDS011;10933;50.754;11.508;2024-01-30T08:44:15;12.73;;;11.73;;
21543;SDS011;10933;50.754;11.508;2024-01-30T08:46:42;12.23;;;11.33;;
21543;SDS011;10933;50.754;11.508;2024-01-30T08:49:11;12.30;;;11.33;;
21543;SDS011;10933;50.754;11.508;2024-01-30T08:51:38;12.80;;;11.70;;
21543;SDS011;10933;50.754;11.508;2024-01-30T08:54:05;12.60;;;11.33;;
21543;SDS011;10933;50.754;11.508;2024-01-30T08:56:31;12.13;;;11.10;;
21543;SDS011;10933;50.754;11.508;2024-01-30T08:58:57;14.23;;;11.87;;
21543;SDS011;10933;50.754;11.508;2024-01-30T09:01:23;12.27;;;11.40;;
21543;SDS011;10933;50.754;11.508;2024-01-30T09:03:51;13.30;;;12.20;;
21543;SDS011;10933;50.754;11.508;2024-01-30T09:06:17;13.07;;;12.07;;
21543;SDS011;10933;50.754;11.508;2024-01-30T09:08:43;13.87;;;12.67;;
21543;SDS011;10933;50.754;11.508;2024-01-30T09:11:10;13.83;;;12.53;;
21543;SDS011;10933;50.754;11.508;2024-01-30T09:13:37;14.50;;;13.23;;
21543;SDS011;10933;50.754;11.508;2024-01-30T09:16:03;13.80;;;12.80;;
21543;SDS011;10933;50.754;11.508;2024-01-30T09:18:30;13.93;;;12.73;;
21543;SDS011;10933;50.754;11.508;2024-01-30T09:20:56;14.83;;;13.33;;
21543;SDS011;10933;50.754;11.508;2024-01-30T09:23:22;14.43;;;13.07;;
21543;SDS011;10933;50.754;11.508;2024-01-30T09:25:49;14.80;;;12.93;;
21543;SDS011;10933;50.754;11.508;2024-01-30T09:28:16;13.17;;;11.83;;
21543;SDS011;10933;50.754;11.508;2024-01-30T09:30:43;14.03;;;12.63;;
21543;SDS011;10933;50.754;11.508;2024-01-30T09:33:09;13.97;;;12.70;;
21543;SDS011;10933;50.754;11.508;2024-01-30T09:35:35;22.13;;;19.20;;
21543;SDS011;10933;50.754;11.508;2024-01-30T09:38:02;15.37;;;14.07;;
21543;SDS011;10933;50.754;11.508;2024-01-30T09:40:28;34.77;;;27.53;;
21543;SDS011;10933;50.754;11.508;2024-01-30T09:42:54;18.07;;;16.53;;
21543;SDS011;10933;50.754;11.508;2024-01-30T09:45:24;19.83;;;18.10;;
21543;SDS011;10933;50.754;11.508;2024-01-30T09:47:51;14.90;;;13.70;;
21543;SDS011;10933;50.754;11.508;2024-01-30T09:50:18;18.77;;;17.27;;
21543;SDS011;10933;50.754;11.508;2024-01-30T09:52:46;15.83;;;14.53;;
21543;SDS011;10933;50.754;11.508;2024-01-30T09:55:12;16.43;;;15.23;;
21543;SDS011;10933;50.754;11.508;2024-01-30T09:57:39;14.00;;;13.00;;
21543;SDS011;10933;50.754;11.508;2024-01-30T10:00:06;13.27;;;12.47;;
21543;SDS011;10933;50.754;11.508;2024-01-30T10:02:34;14.27;;;13.20;;
21543;SDS011;10933;50.754;11.508;2024-01-30T10:05:01;15.43;;;14.07;;
21543;SDS011;10933;50.754;11.508;2024-01-30T10:07:28;19.23;;;17.87;;
21543;SDS011;10933;50.754;11.508;2024-01-30T10:09:55;19.93;;;18.53;;
21543;SDS011;10933;50.754;11.508;2024-01-30T10:12:22;13.83;;;12.93;;
21543;SDS011;10933;50.754;11.508;2024-01-30T10:14:51;11.43;;;10.53;;
21543;SDS011;10933;50.754;11.508;2024-01-30T10:17:17;13.43;;;12.63;;
21543;SDS011;10933;50.754;11.508;2024-01-30T10:19:46;13.13;;;11.93;;
21543;SDS011;10933;50.754;11.508;2024-01-30T10:22:12;10.93;;;10.20;;
21543;SDS011;10933;50.754;11.508;2024-01-30T10:24:39;11.43;;;10.63;;
21543;SDS011;10933;50.754;11.508;2024-01-30T10:27:05;12.77;;;11.97;;
21543;SDS011;10933;50.754;11.508;2024-01-30T10:29:32;10.87;;;10.17;;
21543;SDS011;10933;50.754;11.508;2024-01-30T10:31:58;10.80;;;10.10;;
21543;SDS011;10933;50.754;11.508;2024-01-30T10:34:28;15.40;;;14.33;;
21543;SDS011;10933;50.754;11.508;2024-01-30T10:37:08;10.60;;;9.83;;
21543;SDS011;10933;50.754;11.508;2024-01-30T10:39:38;12.37;;;11.57;;
21543;SDS011;10933;50.754;11.508;2024-01-30T10:42:05;14.73;;;13.40;;
21543;SDS011;10933;50.754;11.508;2024-01-30T10:44:38;15.53;;;14.30;;
21543;SDS011;10933;50.754;11.508;2024-01-30T10:47:10;20.67;;;19.07;;
21543;SDS011;10933;50.754;11.508;2024-01-30T10:49:40;14.70;;;13.30;;
21543;SDS011;10933;50.754;11.508;2024-01-30T10:52:07;12.38;;;11.30;;
21543;SDS011;10933;50.754;11.508;2024-01-30T10:54:35;11.13;;;10.32;;
21543;SDS011;10933;50.754;11.508;2024-01-30T10:57:02;14.00;;;13.15;;
21543;SDS011;10933;50.754;11.508;2024-01-30T10:59:29;12.00;;;11.05;;
21543;SDS011;10933;50.754;11.508;2024-01-30T11:01:57;12.70;;;11.80;;
21543;SDS011;10933;50.754;11.508;2024-01-30T11:04:24;13.80;;;12.90;;
21543;SDS011;10933;50.754;11.508;2024-01-30T11:06:50;11.13;;;10.07;;
21543;SDS011;10933;50.754;11.508;2024-01-30T11:09:17;12.27;;;11.17;;
21543;SDS011;10933;50.754;11.508;2024-01-30T11:11:57;12.20;;;11.40;;
21543;SDS011;10933;50.754;11.508;2024-01-30T11:14:25;13.97;;;12.97;;
21543;SDS011;10933;50.754;11.508;2024-01-30T11:16:52;21.63;;;19.57;;
21543;SDS011;10933;50.754;11.508;2024-01-30T11:19:25;15.47;;;14.43;;
21543;SDS011;10933;50.754;11.508;2024-01-30T11:21:54;11.37;;;10.53;;
21543;SDS011;10933;50.754;11.508;2024-01-30T11:24:22;14.70;;;13.17;;
21543;SDS011;10933;50.754;11.508;2024-01-30T11:26:57;11.47;;;10.37;;
21543;SDS011;10933;50.754;11.508;2024-01-30T11:29:27;11.23;;;10.43;;
21543;SDS011;10933;50.754;11.508;2024-01-30T11:31:54;12.33;;;11.33;;
21543;SDS011;10933;50.754;11.508;2024-01-30T11:34:22;12.73;;;11.93;;
21543;SDS011;10933;50.754;11.508;2024-01-30T11:36:51;12.53;;;11.70;;
21543;SDS011;10933;50.754;11.508;2024-01-30T11:39:25;14.60;;;13.50;;
21543;SDS011;10933;50.754;11.508;2024-01-30T11:41:52;14.27;;;13.00;;
21543;SDS011;10933;50.754;11.508;2024-01-30T11:44:19;16.10;;;14.70;;
21543;SDS011;10933;50.754;11.508;2024-01-30T11:46:48;14.47;;;13.37;;
21543;SDS011;10933;50.754;11.508;2024-01-30T11:49:16;13.00;;;11.90;;
21543;SDS011;10933;50.754;11.508;2024-01-30T11:51:48;22.87;;;20.33;;
21543;SDS011;10933;50.754;11.508;2024-01-30T11:54:14;12.80;;;11.77;;
21543;SDS011;10933;50.754;11.508;2024-01-30T11:56:41;13.17;;;12.07;;
21543;SDS011;10933;50.754;11.508;2024-01-30T11:59:08;13.17;;;12.17;;
21543;SDS011;10933;50.754;11.508;2024-01-30T12:01:34;25.30;;;22.90;;
21543;SDS011;10933;50.754;11.508;2024-01-30T12:04:01;18.77;;;17.10;;
21543;SDS011;10933;50.754;11.508;2024-01-30T12:06:28;14.70;;;13.53;;
21543;SDS011;10933;50.754;11.508;2024-01-30T12:08:57;13.10;;;12.27;;
21543;SDS011;10933;50.754;11.508;2024-01-30T12:11:24;23.87;;;18.03;;
21543;SDS011;10933;50.754;11.508;2024-01-30T12:13:51;25.80;;;17.17;;
21543;SDS011;10933;50.754;11.508;2024-01-30T12:16:19;22.03;;;19.73;;
21543;SDS011;10933;50.754;11.508;2024-01-30T12:18:45;21.63;;;17.07;;
21543;SDS011;10933;50.754;11.508;2024-01-30T12:21:11;16.53;;;15.30;;
21543;SDS011;10933;50.754;11.508;2024-01-30T12:23:41;19.83;;;17.47;;
21543;SDS011;10933;50.754;11.508;2024-01-30T12:26:07;26.90;;;20.30;;
21543;SDS011;10933;50.754;11.508;2024-01-30T12:28:33;22.23;;;19.90;;
21543;SDS011;10933;50.754;11.508;2024-01-30T12:31:02;19.70;;;17.77;;
21543;SDS011;10933;50.754;11.508;2024-01-30T12:33:29;21.10;;;18.50;;
21543;SDS011;10933;50.754;11.508;2024-01-30T12:35:56;17.40;;;15.63;;
21543;SDS011;10933;50.754;11.508;2024-01-30T12:38:26;15.87;;;14.77;;
21543;SDS011;10933;50.754;11.508;2024-01-30T12:40:55;18.43;;;16.57;;
21543;SDS011;10933;50.754;11.508;2024-01-30T12:43:25;16.33;;;14.97;;
21543;SDS011;10933;50.754;11.508;2024-01-30T12:45:55;15.80;;;14.33;;
21543;SDS011;10933;50.754;11.508;2024-01-30T12:48:21;15.27;;;14.07;;
21543;SDS011;10933;50.754;11.508;2024-01-30T12:50:47;14.13;;;12.97;;
21543;SDS011;10933;50.754;11.508;2024-01-30T12:53:13;15.63;;;14.03;;
21543;SDS011;10933;50.754;11.508;2024-01-30T12:55:39;17.40;;;16.00;;
21543;SDS011;10933;50.754;11.508;2024-01-30T12:58:05;14.93;;;13.83;;
21543;SDS011;10933;50.754;11.508;2024-01-30T13:00:31;16.73;;;15.50;;
21543;SDS011;10933;50.754;11.508;2024-01-30T13:02:59;17.03;;;15.53;;
21543;SDS011;10933;50.754;11.508;2024-01-30T13:05:25;18.50;;;17.10;;
21543;SDS011;10933;50.754;11.508;2024-01-30T13:07:51;17.43;;;15.80;;
21543;SDS011;10933;50.754;11.508;2024-01-30T13:10:18;31.80;;;24.17;;
21543;SDS011;10933;50.754;11.508;2024-01-30T13:12:44;36.30;;;22.77;;
21543;SDS011;10933;50.754;11.508;2024-01-30T13:15:10;46.53;;;27.00;;
21543;SDS011;10933;50.754;11.508;2024-01-30T13:17:36;41.03;;;24.30;;
21543;SDS011;10933;50.754;11.508;2024-01-30T13:20:03;24.40;;;19.77;;
21543;SDS011;10933;50.754;11.508;2024-01-30T13:22:29;38.70;;;25.50;;
21543;SDS011;10933;50.754;11.508;2024-01-30T13:24:56;44.87;;;28.03;;
21543;SDS011;10933;50.754;11.508;2024-01-30T13:27:23;34.33;;;22.47;;
21543;SDS011;10933;50.754;11.508;2024-01-30T13:29:49;21.00;;;18.93;;
21543;SDS011;10933;50.754;11.508;2024-01-30T13:32:15;27.93;;;18.83;;
21543;SDS011;10933;50.754;11.508;2024-01-30T13:34:41;21.37;;;19.33;;
21543;SDS011;10933;50.754;11.508;2024-01-30T13:37:08;57.43;;;41.73;;
21543;SDS011;10933;50.754;11.508;2024-01-30T13:39:34;52.22;;;31.55;;
21543;SDS011;10933;50.754;11.508;2024-01-30T13:42:00;55.60;;;33.77;;
21543;SDS011;10933;50.754;11.508;2024-01-30T13:44:26;32.03;;;23.63;;
21543;SDS011;10933;50.754;11.508;2024-01-30T13:46:52;74.63;;;35.17;;
21543;SDS011;10933;50.754;11.508;2024-01-30T13:49:20;75.27;;;32.50;;
21543;SDS011;10933;50.754;11.508;2024-01-30T13:51:46;30.17;;;22.87;;
21543;SDS011;10933;50.754;11.508;2024-01-30T13:54:13;27.00;;;19.67;;
21543;SDS011;10933;50.754;11.508;2024-01-30T13:56:40;20.13;;;18.27;;
21543;SDS011;10933;50.754;11.508;2024-01-30T13:59:06;20.67;;;19.10;;
21543;SDS011;10933;50.754;11.508;2024-01-30T14:01:32;35.97;;;25.53;;
21543;SDS011;10933;50.754;11.508;2024-01-30T14:03:59;20.20;;;18.43;;
21543;SDS011;10933;50.754;11.508;2024-01-30T14:06:25;16.13;;;14.73;;
21543;SDS011;10933;50.754;11.508;2024-01-30T14:08:51;15.73;;;14.38;;